Lund, Idaho
Current Conditions -  °F | °C
As of 10:53 AM on Thursday 27 Nov 2014 (Local Time) from KPIH Reporting Station
Few Clouds Few Clouds  
Wind Chill: 55°   Ceiling: Unl
Heat Index: 55°   Visibility: 10mi
Dew Point: 29°   Wind: 16mph
Humidity: 37%   Direction: 210°SSW
Pressure: 30.23"   Gusts: NA
Location:  42.811°N, 111.938°W
Report Text: KPIH 271753Z 21014KT 10SM FEW110 13/M02 A3023 RMK AO2 SLP220 T01281017 10128 20089 51009
Loading
Personal Weather Stations






























Interactive Weather Map New forecast layout! Learn more

10-Day Weather Forecast

Advertisements
Track Severe Weather on mobile